createdAt,value
2023-02-03T00:01:53.446Z,0
2023-02-03T00:04:19.556Z,0
2023-02-03T00:06:45.652Z,0
2023-02-03T00:09:11.738Z,0
2023-02-03T00:11:37.865Z,0
2023-02-03T00:14:03.955Z,0
2023-02-03T00:16:30.024Z,0
2023-02-03T00:18:56.159Z,0
2023-02-03T00:21:22.354Z,0
2023-02-03T00:23:48.344Z,0
2023-02-03T00:26:13.416Z,0
2023-02-03T00:28:39.537Z,0
2023-02-03T00:31:05.669Z,0
2023-02-03T00:33:31.760Z,0
2023-02-03T00:35:57.891Z,0
2023-02-03T00:38:23.919Z,0
2023-02-03T00:40:50.082Z,0
2023-02-03T00:43:16.087Z,0
2023-02-03T00:45:42.184Z,0
2023-02-03T00:48:08.324Z,0
2023-02-03T00:50:34.383Z,0
2023-02-03T00:53:00.480Z,0
2023-02-03T00:55:26.605Z,0
2023-02-03T00:57:51.687Z,0
2023-02-03T01:00:17.860Z,0
2023-02-03T01:02:43.890Z,0
2023-02-03T01:05:10.056Z,0
2023-02-03T01:07:36.088Z,0
2023-02-03T01:10:02.170Z,0
2023-02-03T01:12:28.389Z,0
2023-02-03T01:14:54.355Z,0
2023-02-03T01:17:20.465Z,0
2023-02-03T01:19:46.577Z,0
2023-02-03T01:22:12.712Z,0
2023-02-03T01:24:38.797Z,0
2023-02-03T01:27:04.848Z,0
2023-02-03T01:29:30.043Z,0
2023-02-03T01:31:56.117Z,0
2023-02-03T01:34:22.263Z,0
2023-02-03T01:36:48.289Z,0
2023-02-03T01:39:14.368Z,0
2023-02-03T01:41:40.505Z,0
2023-02-03T01:44:06.704Z,0
2023-02-03T01:46:32.715Z,0
2023-02-03T01:48:58.737Z,0
2023-02-03T01:51:24.805Z,0
2023-02-03T01:53:50.906Z,0
2023-02-03T01:56:17.011Z,0
2023-02-03T01:58:43.082Z,0
2023-02-03T02:01:08.194Z,0
2023-02-03T02:03:34.330Z,0
2023-02-03T02:06:00.456Z,0
2023-02-03T02:08:26.515Z,0
2023-02-03T02:10:52.580Z,0
2023-02-03T02:13:18.725Z,0
2023-02-03T02:15:44.778Z,0
2023-02-03T02:18:10.868Z,0
2023-02-03T02:20:36.976Z,0
2023-02-03T02:23:03.073Z,0
2023-02-03T02:25:29.151Z,0
2023-02-03T02:27:55.317Z,0
2023-02-03T02:30:21.398Z,0
2023-02-03T02:32:46.486Z,0
2023-02-03T02:35:12.622Z,0
2023-02-03T02:37:38.706Z,0
2023-02-03T02:40:04.799Z,0
2023-02-03T02:42:31.006Z,0
2023-02-03T02:44:56.940Z,0
2023-02-03T02:47:23.131Z,0
2023-02-03T02:49:49.198Z,0
2023-02-03T02:52:15.226Z,0
2023-02-03T02:54:41.338Z,0
2023-02-03T02:57:07.407Z,0
2023-02-03T02:59:33.512Z,0
2023-02-03T03:01:59.685Z,0
2023-02-03T03:04:24.748Z,0
2023-02-03T03:06:50.890Z,0
2023-02-03T03:09:16.973Z,0
2023-02-03T03:11:43.058Z,0
2023-02-03T03:14:09.149Z,0
2023-02-03T03:16:35.196Z,0
2023-02-03T03:19:01.300Z,0
2023-02-03T03:21:27.400Z,0
2023-02-03T03:23:53.476Z,0
2023-02-03T03:26:19.571Z,0
2023-02-03T03:28:45.677Z,0
2023-02-03T03:31:11.802Z,0
2023-02-03T03:33:37.892Z,0
2023-02-03T03:36:02.996Z,0
2023-02-03T03:38:29.083Z,0
2023-02-03T03:40:55.247Z,0
2023-02-03T03:43:21.305Z,0
2023-02-03T03:45:47.357Z,0
2023-02-03T03:48:13.463Z,0
2023-02-03T03:50:39.574Z,0
2023-02-03T03:53:05.662Z,0
2023-02-03T03:55:31.760Z,0
2023-02-03T03:57:57.835Z,0
2023-02-03T04:00:23.987Z,0
2023-02-03T04:02:50.035Z,0
2023-02-03T04:05:16.132Z,0
2023-02-03T04:07:41.231Z,0
2023-02-03T04:10:07.349Z,0
2023-02-03T04:12:33.496Z,0
2023-02-03T04:14:59.528Z,0
2023-02-03T04:17:25.795Z,0
2023-02-03T04:19:51.781Z,0
2023-02-03T04:22:17.835Z,0
2023-02-03T04:24:43.907Z,0
2023-02-03T04:27:10.002Z,0
2023-02-03T04:29:36.086Z,0
2023-02-03T04:32:02.203Z,0
2023-02-03T04:34:28.298Z,0
2023-02-03T04:36:54.442Z,0
2023-02-03T04:39:19.505Z,0
2023-02-03T04:41:45.608Z,0
2023-02-03T04:44:11.704Z,0
2023-02-03T04:46:37.795Z,0
2023-02-03T04:49:03.969Z,0
2023-02-03T04:51:30.000Z,0
2023-02-03T04:53:56.345Z,0
2023-02-03T04:56:22.184Z,0
2023-02-03T04:58:48.266Z,0
2023-02-03T05:01:14.375Z,0
2023-02-03T05:03:40.459Z,0
2023-02-03T05:06:06.574Z,0
2023-02-03T05:08:32.725Z,0
2023-02-03T05:10:57.762Z,0
2023-02-03T05:13:23.870Z,0
2023-02-03T05:15:49.998Z,0
2023-02-03T05:18:16.061Z,0
2023-02-03T05:20:42.156Z,0
2023-02-03T05:23:08.248Z,0
2023-02-03T05:25:33.350Z,0
2023-02-03T05:27:59.495Z,0
2023-02-03T05:30:25.542Z,0
2023-02-03T05:32:51.664Z,0
2023-02-03T05:35:17.804Z,0
2023-02-03T05:37:43.864Z,0
2023-02-03T05:40:09.928Z,0
2023-02-03T05:42:36.031Z,0
2023-02-03T05:45:02.129Z,0
2023-02-03T05:47:28.313Z,0
2023-02-03T05:49:54.424Z,0
2023-02-03T05:52:20.453Z,0
2023-02-03T05:54:46.592Z,0
2023-02-03T05:57:11.616Z,0
2023-02-03T05:59:37.711Z,0
2023-02-03T06:02:03.819Z,0
2023-02-03T06:04:30.003Z,0
2023-02-03T06:06:56.125Z,0
2023-02-03T06:09:22.103Z,0
2023-02-03T06:11:48.253Z,0
2023-02-03T06:14:14.294Z,0
2023-02-03T06:16:40.448Z,0
2023-02-03T06:19:06.479Z,0
2023-02-03T06:21:32.575Z,0
2023-02-03T06:23:58.669Z,0
2023-02-03T06:26:24.784Z,0
2023-02-03T06:28:49.885Z,0
2023-02-03T06:31:16.147Z,0
2023-02-03T06:33:42.174Z,0
2023-02-03T06:36:08.331Z,0
2023-02-03T06:38:34.315Z,0
2023-02-03T06:41:00.441Z,0
2023-02-03T06:43:26.514Z,0
2023-02-03T06:45:52.576Z,0
2023-02-03T06:48:18.655Z,0
2023-02-03T06:50:44.799Z,0
2023-02-03T06:53:10.852Z,0
2023-02-03T06:55:36.931Z,5
2023-02-03T06:58:03.108Z,5
2023-02-03T07:00:28.205Z,5
2023-02-03T07:02:54.246Z,11
2023-02-03T07:05:20.322Z,11
2023-02-03T07:07:46.444Z,11
2023-02-03T07:10:12.526Z,16
2023-02-03T07:12:38.664Z,16
2023-02-03T07:15:04.722Z,16
2023-02-03T07:17:30.831Z,22
2023-02-03T07:19:56.895Z,28
2023-02-03T07:22:23.018Z,28
2023-02-03T07:24:49.208Z,33
2023-02-03T07:27:15.201Z,39
2023-02-03T07:29:41.640Z,33
2023-02-03T07:32:06.427Z,33
2023-02-03T07:34:32.743Z,45
2023-02-03T07:36:58.662Z,45
2023-02-03T07:39:24.774Z,39
2023-02-03T07:41:50.797Z,33
2023-02-03T07:44:16.884Z,33
2023-02-03T07:46:43.037Z,39
2023-02-03T07:49:09.151Z,45
2023-02-03T07:51:35.334Z,50
2023-02-03T07:54:01.705Z,50
2023-02-03T07:56:27.463Z,39
2023-02-03T07:58:53.635Z,33
2023-02-03T08:01:19.807Z,33
2023-02-03T08:03:44.950Z,28
2023-02-03T08:06:10.902Z,50
2023-02-03T08:08:36.866Z,50
2023-02-03T08:11:03.043Z,61
2023-02-03T08:13:29.112Z,50
2023-02-03T08:15:55.167Z,61
2023-02-03T08:18:21.248Z,73
2023-02-03T08:20:47.356Z,73
2023-02-03T08:23:13.434Z,73
2023-02-03T08:25:39.548Z,61
2023-02-03T08:28:05.630Z,50
2023-02-03T08:30:31.817Z,61
2023-02-03T08:32:57.930Z,61
2023-02-03T08:35:22.935Z,61
2023-02-03T08:37:49.085Z,78
2023-02-03T08:40:15.205Z,101
2023-02-03T08:42:41.320Z,101
2023-02-03T08:45:07.373Z,67
2023-02-03T08:47:33.509Z,73
2023-02-03T08:49:59.590Z,90
2023-02-03T08:52:25.690Z,84
2023-02-03T08:54:51.828Z,84
2023-02-03T08:57:17.917Z,61
2023-02-03T08:59:43.993Z,56
2023-02-03T09:02:09.997Z,73
2023-02-03T09:04:36.066Z,84
2023-02-03T09:07:01.194Z,78
2023-02-03T09:09:27.344Z,73
2023-02-03T09:11:53.435Z,61
2023-02-03T09:14:19.504Z,90
2023-02-03T09:16:45.693Z,95
2023-02-03T09:19:11.668Z,112
2023-02-03T09:21:37.764Z,84
2023-02-03T09:24:03.858Z,135
2023-02-03T09:26:29.965Z,151
2023-02-03T09:28:56.155Z,146
2023-02-03T09:31:22.213Z,191
2023-02-03T09:33:48.326Z,123
2023-02-03T09:36:14.400Z,112
2023-02-03T09:38:39.603Z,112
2023-02-03T09:41:05.604Z,135
2023-02-03T09:43:31.756Z,174
2023-02-03T09:45:57.857Z,174
2023-02-03T09:48:23.903Z,191
2023-02-03T09:50:50.056Z,236
2023-02-03T09:53:16.130Z,225
2023-02-03T09:55:42.113Z,241
2023-02-03T09:58:08.210Z,241
2023-02-03T10:00:34.358Z,253
2023-02-03T10:03:00.513Z,293
2023-02-03T10:05:26.515Z,265
2023-02-03T10:07:52.770Z,247
2023-02-03T10:10:17.710Z,247
2023-02-03T10:12:43.970Z,241
2023-02-03T10:15:09.965Z,253
2023-02-03T10:17:36.016Z,304
2023-02-03T10:20:02.100Z,265
2023-02-03T10:22:28.258Z,271
2023-02-03T10:24:54.337Z,259
2023-02-03T10:27:20.383Z,304
2023-02-03T10:29:46.474Z,316
2023-02-03T10:32:12.602Z,316
2023-02-03T10:34:38.669Z,310
2023-02-03T10:37:04.756Z,332
2023-02-03T10:39:30.860Z,332
2023-02-03T10:41:55.975Z,259
2023-02-03T10:44:22.069Z,236
2023-02-03T10:46:48.152Z,310
2023-02-03T10:49:14.295Z,310
2023-02-03T10:51:40.495Z,310
2023-02-03T10:54:06.562Z,338
2023-02-03T10:56:32.633Z,349
2023-02-03T10:58:58.785Z,349
2023-02-03T11:01:25.018Z,406
2023-02-03T11:03:50.867Z,344
2023-02-03T11:06:16.973Z,321
2023-02-03T11:08:43.069Z,349
2023-02-03T11:11:09.227Z,411
2023-02-03T11:13:34.285Z,377
2023-02-03T11:16:00.423Z,389
2023-02-03T11:18:26.436Z,400
2023-02-03T11:20:52.576Z,394
2023-02-03T11:23:18.617Z,366
2023-02-03T11:25:44.715Z,344
2023-02-03T11:28:10.799Z,361
2023-02-03T11:30:37.015Z,230
2023-02-03T11:33:03.092Z,219
2023-02-03T11:35:29.102Z,304
2023-02-03T11:37:55.190Z,202
2023-02-03T11:40:21.280Z,168
2023-02-03T11:42:47.385Z,271
2023-02-03T11:45:12.499Z,265
2023-02-03T11:47:38.603Z,219
2023-02-03T11:50:04.668Z,230
2023-02-03T11:52:30.816Z,276
2023-02-03T11:54:56.884Z,241
2023-02-03T11:57:23.010Z,219
2023-02-03T11:59:49.080Z,259
2023-02-03T12:02:15.173Z,293
2023-02-03T12:04:41.256Z,219
2023-02-03T12:07:07.364Z,276
2023-02-03T12:09:33.515Z,174
2023-02-03T12:11:59.540Z,213
2023-02-03T12:14:25.642Z,180
2023-02-03T12:16:50.751Z,196
2023-02-03T12:19:16.881Z,236
2023-02-03T12:21:42.948Z,191
2023-02-03T12:24:09.042Z,180
2023-02-03T12:26:35.211Z,163
2023-02-03T12:29:01.231Z,118
2023-02-03T12:31:27.317Z,118
2023-02-03T12:33:53.437Z,101
2023-02-03T12:36:19.589Z,84
2023-02-03T12:38:45.690Z,78
2023-02-03T12:41:11.715Z,90
2023-02-03T12:43:37.819Z,90
2023-02-03T12:46:03.907Z,95
2023-02-03T12:48:29.022Z,95
2023-02-03T12:50:55.111Z,84
2023-02-03T12:53:21.271Z,78
2023-02-03T12:55:47.325Z,67
2023-02-03T12:58:13.391Z,73
2023-02-03T13:00:39.516Z,73
2023-02-03T13:03:05.646Z,73
2023-02-03T13:05:45.747Z,84
2023-02-03T13:07:57.877Z,78
2023-02-03T13:10:23.903Z,78
2023-02-03T13:12:49.980Z,61
2023-02-03T13:15:16.136Z,61
2023-02-03T13:17:42.180Z,67
2023-02-03T13:20:07.283Z,61
2023-02-03T13:22:33.383Z,61
2023-02-03T13:24:59.464Z,78
2023-02-03T13:27:25.567Z,73
2023-02-03T13:29:51.652Z,84
2023-02-03T13:32:17.769Z,90
2023-02-03T13:34:42.881Z,90
2023-02-03T13:37:08.988Z,84
2023-02-03T13:39:35.127Z,84
2023-02-03T13:42:01.183Z,73
2023-02-03T13:44:27.273Z,73
2023-02-03T13:46:53.382Z,78
2023-02-03T13:49:19.459Z,61
2023-02-03T13:51:45.543Z,67
2023-02-03T13:54:11.634Z,61
2023-02-03T13:56:37.773Z,61
2023-02-03T13:59:03.914Z,61
2023-02-03T14:01:29.940Z,56
2023-02-03T14:03:56.086Z,61
2023-02-03T14:06:22.132Z,61
2023-02-03T14:08:48.227Z,61
2023-02-03T14:11:14.314Z,67
2023-02-03T14:13:40.412Z,78
2023-02-03T14:16:06.496Z,67
2023-02-03T14:18:32.609Z,73
2023-02-03T14:20:57.719Z,67
2023-02-03T14:23:23.801Z,73
2023-02-03T14:25:49.980Z,56
2023-02-03T14:28:16.089Z,61
2023-02-03T14:30:42.160Z,61
2023-02-03T14:33:08.223Z,50
2023-02-03T14:35:34.296Z,50
2023-02-03T14:38:00.443Z,56
2023-02-03T14:40:26.483Z,56
2023-02-03T14:42:52.739Z,50
2023-02-03T14:45:18.663Z,56
2023-02-03T14:47:44.786Z,56
2023-02-03T14:50:10.845Z,56
2023-02-03T14:52:35.972Z,50
2023-02-03T14:55:02.092Z,39
2023-02-03T14:57:28.201Z,33
2023-02-03T14:59:54.251Z,33
2023-02-03T15:02:20.398Z,39
2023-02-03T15:04:46.439Z,39
2023-02-03T15:07:12.553Z,45
2023-02-03T15:09:38.648Z,39
2023-02-03T15:12:04.724Z,39
2023-02-03T15:14:30.830Z,39
2023-02-03T15:16:56.942Z,33
2023-02-03T15:19:23.032Z,28
2023-02-03T15:21:49.123Z,28
2023-02-03T15:24:15.209Z,28
2023-02-03T15:26:41.301Z,22
2023-02-03T15:29:06.429Z,22
2023-02-03T15:31:32.604Z,16
2023-02-03T15:33:58.678Z,16
2023-02-03T15:36:24.708Z,16
2023-02-03T15:38:50.807Z,16
2023-02-03T15:41:16.909Z,11
2023-02-03T15:43:43.016Z,11
2023-02-03T15:46:09.080Z,11
2023-02-03T15:48:35.253Z,11
2023-02-03T15:51:01.324Z,11
2023-02-03T15:53:27.360Z,11
2023-02-03T15:55:53.543Z,11
2023-02-03T15:58:19.563Z,5
2023-02-03T16:00:44.684Z,5
2023-02-03T16:03:10.752Z,5
2023-02-03T16:05:36.857Z,5
2023-02-03T16:08:03.084Z,5
2023-02-03T16:10:29.052Z,5
2023-02-03T16:12:55.159Z,5
2023-02-03T16:15:21.232Z,0
2023-02-03T16:17:47.346Z,0
2023-02-03T16:20:13.434Z,0
2023-02-03T16:22:39.610Z,0
2023-02-03T16:25:05.616Z,0
2023-02-03T16:27:31.711Z,0
2023-02-03T16:29:57.847Z,0
2023-02-03T16:32:22.948Z,0
2023-02-03T16:34:49.019Z,0
2023-02-03T16:37:15.103Z,0
2023-02-03T16:39:41.205Z,0
2023-02-03T16:42:07.314Z,0
2023-02-03T16:44:33.428Z,0
2023-02-03T16:46:59.514Z,0
2023-02-03T16:49:25.659Z,0
2023-02-03T16:51:51.682Z,0
2023-02-03T16:54:17.839Z,0
2023-02-03T16:56:44.036Z,0
2023-02-03T16:59:10.070Z,0
2023-02-03T17:01:36.162Z,0
2023-02-03T17:04:01.179Z,0
2023-02-03T17:06:27.364Z,0
2023-02-03T17:08:53.502Z,0
2023-02-03T17:11:19.466Z,0
2023-02-03T17:13:45.579Z,0
2023-02-03T17:16:11.725Z,0
2023-02-03T17:18:37.834Z,0
2023-02-03T17:21:03.905Z,0
2023-02-03T17:23:30.024Z,0
2023-02-03T17:25:56.081Z,0
2023-02-03T17:28:22.290Z,0
2023-02-03T17:30:48.369Z,0
2023-02-03T17:33:14.373Z,0
2023-02-03T17:35:39.504Z,0
2023-02-03T17:38:05.633Z,0
2023-02-03T17:55:08.202Z,0
2023-02-03T17:57:34.406Z,0
2023-02-03T18:00:00.469Z,0
2023-02-03T18:02:26.477Z,0
2023-02-03T18:04:52.626Z,0
2023-02-03T18:07:17.759Z,0
2023-02-03T18:09:43.862Z,0
2023-02-03T18:12:09.917Z,0
2023-02-03T18:14:36.016Z,0
2023-02-03T18:17:02.191Z,0
2023-02-03T18:19:28.235Z,0
2023-02-03T18:21:54.261Z,0
2023-02-03T18:24:20.397Z,0
2023-02-03T18:26:46.434Z,0
2023-02-03T18:29:12.527Z,0
2023-02-03T18:31:38.872Z,0
2023-02-03T18:34:04.803Z,0
2023-02-03T18:36:30.814Z,0
2023-02-03T18:38:55.990Z,0
2023-02-03T18:41:22.210Z,0
2023-02-03T18:43:48.299Z,0
2023-02-03T18:46:14.401Z,0
2023-02-03T18:48:40.501Z,0
2023-02-03T18:51:06.614Z,0
2023-02-03T18:53:32.721Z,0
2023-02-03T18:55:58.822Z,0
2023-02-03T18:58:24.807Z,0
2023-02-03T19:00:50.999Z,0
2023-02-03T19:03:17.062Z,0
2023-02-03T19:05:43.161Z,0
2023-02-03T19:08:09.244Z,0
2023-02-03T19:10:34.382Z,0
2023-02-03T19:13:00.441Z,0
2023-02-03T19:15:26.578Z,0
2023-02-03T19:17:52.680Z,0
2023-02-03T19:20:18.646Z,0
2023-02-03T19:22:44.723Z,0
2023-02-03T19:25:10.849Z,0
2023-02-03T19:27:36.882Z,0
2023-02-03T19:30:03.047Z,0
2023-02-03T19:32:29.157Z,0
2023-02-03T19:34:55.193Z,0
2023-02-03T19:37:21.280Z,0
2023-02-03T19:39:47.523Z,0
2023-02-03T19:42:12.594Z,0
2023-02-03T19:44:38.679Z,0
2023-02-03T19:47:04.686Z,0
2023-02-03T19:49:30.898Z,0
2023-02-03T19:51:56.954Z,0
2023-02-03T19:54:22.993Z,0
2023-02-03T19:56:49.099Z,0
2023-02-03T19:59:15.173Z,0
2023-02-03T20:01:41.271Z,0
2023-02-03T20:04:07.362Z,0
2023-02-03T20:06:33.559Z,0
2023-02-03T20:08:59.559Z,0
2023-02-03T20:11:25.647Z,0
2023-02-03T20:13:50.766Z,0
2023-02-03T20:16:16.853Z,0
2023-02-03T20:18:42.954Z,0
2023-02-03T20:21:09.037Z,0
2023-02-03T20:23:35.192Z,0
2023-02-03T20:26:01.244Z,0
2023-02-03T20:28:27.368Z,0
2023-02-03T20:30:53.452Z,0
2023-02-03T20:33:19.539Z,0
2023-02-03T20:35:45.616Z,0
2023-02-03T20:38:11.726Z,0
2023-02-03T20:40:37.841Z,0
2023-02-03T20:43:03.900Z,0
2023-02-03T20:45:29.072Z,0
2023-02-03T20:47:55.157Z,0
2023-02-03T20:50:21.207Z,0
2023-02-03T20:52:47.311Z,0
2023-02-03T20:55:13.408Z,0
2023-02-03T20:57:39.507Z,0
2023-02-03T21:00:05.604Z,0
2023-02-03T21:02:31.710Z,0
2023-02-03T21:04:57.796Z,0
2023-02-03T21:07:23.886Z,0
2023-02-03T21:09:49.985Z,0
2023-02-03T21:12:16.081Z,0
2023-02-03T21:14:42.181Z,0
2023-02-03T21:17:08.277Z,0
2023-02-03T21:19:33.377Z,0
2023-02-03T21:21:59.543Z,0
2023-02-03T21:24:25.558Z,0
2023-02-03T21:26:51.676Z,0
2023-02-03T21:29:17.769Z,0
2023-02-03T21:31:43.864Z,0
2023-02-03T21:34:09.956Z,0
2023-02-03T21:36:36.045Z,0
2023-02-03T21:39:02.144Z,0
2023-02-03T21:41:28.294Z,0
2023-02-03T21:43:53.368Z,0
2023-02-03T21:46:19.458Z,0
2023-02-03T21:48:45.562Z,0
2023-02-03T21:51:11.655Z,0
2023-02-03T21:53:37.780Z,0
2023-02-03T21:56:03.842Z,0
2023-02-03T21:58:29.966Z,0
2023-02-03T22:00:56.058Z,0
2023-02-03T22:03:22.124Z,0
2023-02-03T22:05:48.221Z,0
2023-02-03T22:08:14.323Z,0
2023-02-03T22:10:40.421Z,0
2023-02-03T22:13:06.502Z,0
2023-02-03T22:15:31.670Z,0
2023-02-03T22:17:57.770Z,0
2023-02-03T22:20:23.899Z,0
2023-02-03T22:22:49.914Z,0
2023-02-03T22:25:16.026Z,0
2023-02-03T22:27:42.113Z,0
2023-02-03T22:30:08.196Z,0
2023-02-03T22:32:34.303Z,0
2023-02-03T22:35:00.402Z,0
2023-02-03T22:37:26.491Z,0
2023-02-03T22:39:52.600Z,0
2023-02-03T22:42:18.686Z,0
2023-02-03T22:44:44.761Z,0
2023-02-03T22:47:09.896Z,0
2023-02-03T22:49:35.985Z,0
2023-02-03T22:52:02.127Z,0
2023-02-03T22:54:28.168Z,0
2023-02-03T22:56:54.271Z,0
2023-02-03T22:59:20.362Z,0
2023-02-03T23:01:46.456Z,0
2023-02-03T23:04:12.581Z,0
2023-02-03T23:06:38.688Z,0
2023-02-03T23:09:04.767Z,0
2023-02-03T23:11:30.863Z,0
2023-02-03T23:13:56.926Z,0
2023-02-03T23:16:23.050Z,0
2023-02-03T23:18:48.199Z,0
2023-02-03T23:21:14.250Z,0
2023-02-03T23:23:40.360Z,0
2023-02-03T23:26:06.442Z,0
2023-02-03T23:28:32.564Z,0
2023-02-03T23:30:58.634Z,0
2023-02-03T23:33:24.754Z,0
2023-02-03T23:35:50.832Z,0
2023-02-03T23:38:16.910Z,0
2023-02-03T23:40:43.040Z,0
2023-02-03T23:43:09.137Z,0
2023-02-03T23:45:35.216Z,0
2023-02-03T23:48:01.298Z,0
2023-02-03T23:50:26.451Z,0
2023-02-03T23:52:52.515Z,0
2023-02-03T23:55:18.630Z,0
2023-02-03T23:57:44.703Z,0
